createdAt,value
2022-11-22T00:01:28.000Z,5.32
2022-11-22T00:03:55.708Z,6.43
2022-11-22T00:06:23.189Z,6.00
2022-11-22T00:08:52.033Z,9.00
2022-11-22T00:11:22.238Z,6.45
2022-11-22T00:13:49.802Z,7.50
2022-11-22T00:16:17.344Z,8.27
2022-11-22T00:18:44.846Z,8.15
2022-11-22T00:21:14.615Z,10.45
2022-11-22T00:23:49.265Z,5.43
2022-11-22T00:26:18.133Z,7.05
2022-11-22T00:28:45.805Z,9.02
2022-11-22T00:31:13.339Z,8.48
2022-11-22T00:33:42.424Z,9.48
2022-11-22T00:36:10.082Z,5.28
2022-11-22T00:38:40.793Z,6.80
2022-11-22T00:41:08.398Z,6.78
2022-11-22T00:43:37.424Z,7.13
2022-11-22T00:46:04.908Z,8.95
2022-11-22T00:48:32.563Z,7.88
2022-11-22T00:51:00.079Z,7.93
2022-11-22T00:53:27.638Z,8.57
2022-11-22T00:55:55.105Z,9.32
2022-11-22T00:58:22.656Z,6.68
2022-11-22T01:00:56.343Z,6.35
2022-11-22T01:03:24.432Z,8.77
2022-11-22T01:05:51.990Z,8.15
2022-11-22T01:08:19.579Z,10.25
2022-11-22T01:10:47.064Z,9.05
2022-11-22T01:13:14.754Z,7.28
2022-11-22T01:15:42.243Z,7.32
2022-11-22T01:18:11.238Z,11.27
2022-11-22T01:20:40.628Z,6.68
2022-11-22T01:23:08.209Z,7.88
2022-11-22T01:25:35.913Z,9.65
2022-11-22T01:28:03.366Z,9.55
2022-11-22T01:30:30.948Z,10.45
2022-11-22T01:32:58.443Z,9.50
2022-11-22T01:35:29.689Z,7.55
2022-11-22T01:37:57.381Z,9.65
2022-11-22T01:40:24.994Z,10.82
2022-11-22T01:42:53.746Z,11.45
2022-11-22T01:45:39.875Z,10.32
2022-11-22T01:48:10.584Z,8.07
2022-11-22T01:50:44.362Z,11.18
2022-11-22T01:53:17.256Z,14.45
2022-11-22T01:55:45.619Z,7.43
2022-11-22T01:58:15.120Z,10.80
2022-11-22T02:00:43.698Z,9.77
2022-11-22T02:03:13.026Z,9.45
2022-11-22T02:05:44.451Z,10.60
2022-11-22T02:08:15.626Z,10.98
2022-11-22T02:10:45.008Z,8.43
2022-11-22T02:13:14.323Z,11.43
2022-11-22T02:15:45.247Z,9.60
2022-11-22T02:18:17.479Z,9.57
2022-11-22T02:20:46.683Z,9.98
2022-11-22T02:23:19.088Z,11.70
2022-11-22T02:25:52.492Z,12.05
2022-11-22T02:28:19.976Z,10.45
2022-11-22T02:30:47.705Z,12.05
2022-11-22T02:33:15.296Z,13.00
2022-11-22T02:35:44.970Z,12.45
2022-11-22T02:38:13.463Z,11.05
2022-11-22T02:40:43.671Z,12.55
2022-11-22T02:43:14.387Z,12.82
2022-11-22T02:45:43.459Z,14.77
2022-11-22T02:48:12.431Z,14.02
2022-11-22T02:50:40.274Z,16.15
2022-11-22T02:53:08.477Z,12.90
2022-11-22T02:55:36.627Z,12.43
2022-11-22T02:58:06.115Z,16.02
2022-11-22T03:00:39.617Z,14.70
2022-11-22T03:03:07.605Z,14.63
2022-11-22T03:05:35.184Z,18.45
2022-11-22T03:08:02.897Z,11.43
2022-11-22T03:10:30.582Z,15.80
2022-11-22T03:12:58.246Z,15.23
2022-11-22T03:15:25.792Z,13.38
2022-11-22T03:17:59.272Z,13.40
2022-11-22T03:20:26.923Z,15.30
2022-11-22T03:22:54.746Z,12.77
2022-11-22T03:25:22.278Z,12.85
2022-11-22T03:27:50.031Z,16.63
2022-11-22T03:30:17.649Z,16.73
2022-11-22T03:32:45.191Z,14.82
2022-11-22T03:35:14.275Z,14.60
2022-11-22T03:37:41.910Z,15.45
2022-11-22T03:40:09.967Z,15.35
2022-11-22T03:42:37.530Z,13.85
2022-11-22T03:45:05.299Z,14.65
2022-11-22T03:47:32.784Z,17.85
2022-11-22T03:50:00.272Z,15.00
2022-11-22T03:52:29.547Z,11.02
2022-11-22T03:54:58.122Z,14.43
2022-11-22T03:57:25.601Z,13.68
2022-11-22T03:59:56.380Z,15.02
2022-11-22T04:02:23.913Z,16.27
2022-11-22T04:04:54.017Z,15.00
2022-11-22T04:07:21.567Z,13.27
2022-11-22T04:09:50.534Z,17.55
2022-11-22T04:12:18.011Z,18.13
2022-11-22T04:15:03.042Z,13.73
2022-11-22T04:17:44.680Z,15.40
2022-11-22T04:20:31.074Z,14.32
2022-11-22T04:23:04.786Z,14.77
2022-11-22T04:25:33.472Z,11.95
2022-11-22T04:28:06.213Z,13.52
2022-11-22T04:30:54.641Z,15.63
2022-11-22T04:33:22.514Z,12.55
2022-11-22T04:35:50.410Z,14.40
2022-11-22T04:38:18.513Z,13.77
2022-11-22T04:40:47.527Z,11.63
2022-11-22T04:43:34.895Z,16.35
2022-11-22T04:46:02.796Z,13.15
2022-11-22T04:48:30.267Z,19.75
2022-11-22T04:51:15.478Z,11.48
2022-11-22T04:53:44.197Z,22.10
2022-11-22T04:56:13.325Z,18.05
2022-11-22T04:58:40.969Z,15.35
2022-11-22T05:01:08.704Z,16.52
2022-11-22T05:03:36.359Z,17.05
2022-11-22T05:06:04.765Z,18.60
2022-11-22T05:08:32.471Z,18.73
2022-11-22T05:11:00.040Z,17.27
2022-11-22T05:13:30.437Z,16.25
2022-11-22T05:15:58.657Z,22.40
2022-11-22T05:18:26.724Z,14.70
2022-11-22T05:20:54.426Z,23.90
2022-11-22T05:23:39.823Z,16.40
2022-11-22T05:26:07.902Z,15.70
2022-11-22T05:28:37.438Z,16.80
2022-11-22T05:31:08.777Z,17.60
2022-11-22T05:33:37.325Z,20.15
2022-11-22T05:36:08.949Z,23.20
2022-11-22T05:38:37.828Z,21.65
2022-11-22T05:41:05.944Z,25.23
2022-11-22T05:43:33.508Z,19.02
2022-11-22T05:46:09.185Z,18.88
2022-11-22T05:48:36.993Z,21.65
2022-11-22T05:51:05.606Z,14.52
2022-11-22T05:53:33.112Z,18.23
2022-11-22T05:56:04.588Z,21.67
2022-11-22T05:58:32.127Z,20.45
2022-11-22T06:01:17.577Z,14.85
2022-11-22T06:03:46.656Z,18.40
2022-11-22T06:06:14.558Z,17.90
2022-11-22T06:08:45.076Z,17.48
2022-11-22T06:11:14.528Z,18.25
2022-11-22T06:13:44.280Z,16.50
2022-11-22T06:16:12.410Z,14.23
2022-11-22T06:18:41.172Z,15.50
2022-11-22T06:21:31.235Z,14.50
2022-11-22T06:23:59.013Z,18.70
2022-11-22T06:26:30.152Z,15.65
2022-11-22T06:29:00.046Z,23.75
2022-11-22T06:31:31.204Z,20.13
2022-11-22T06:34:02.595Z,16.38
2022-11-22T06:36:35.885Z,19.55
2022-11-22T06:39:03.967Z,23.90
2022-11-22T06:41:36.264Z,20.88
2022-11-22T06:44:07.150Z,28.80
2022-11-22T06:46:39.980Z,21.85
2022-11-22T06:49:08.064Z,25.50
2022-11-22T06:51:38.049Z,23.92
2022-11-22T06:54:06.337Z,26.67
2022-11-22T06:56:37.349Z,22.55
2022-11-22T06:59:05.722Z,22.58
2022-11-22T07:01:34.021Z,26.05
2022-11-22T07:04:05.085Z,19.98
2022-11-22T07:06:33.997Z,18.73
2022-11-22T07:09:28.971Z,22.63
2022-11-22T07:12:02.214Z,17.20
2022-11-22T07:14:30.054Z,21.25
2022-11-22T07:16:59.237Z,22.67
2022-11-22T07:19:26.841Z,23.48
2022-11-22T07:21:55.398Z,18.42
2022-11-22T07:24:24.618Z,25.27
2022-11-22T07:27:12.068Z,25.63
2022-11-22T07:29:48.823Z,21.42
2022-11-22T07:32:18.098Z,22.98
2022-11-22T07:34:45.959Z,23.35
2022-11-22T07:37:14.056Z,21.50
2022-11-22T07:39:43.655Z,23.88
2022-11-22T07:42:15.957Z,18.73
2022-11-22T07:47:22.577Z,18.75
2022-11-22T07:49:50.495Z,20.60
2022-11-22T07:52:20.868Z,20.75
2022-11-22T07:54:51.912Z,21.60
2022-11-22T07:57:24.110Z,26.33
2022-11-22T07:59:54.411Z,18.58
2022-11-22T08:02:22.306Z,23.90
2022-11-22T08:04:52.477Z,18.23
2022-11-22T08:07:20.629Z,20.92
2022-11-22T08:09:53.237Z,27.75
2022-11-22T08:12:21.282Z,19.10
2022-11-22T08:14:50.985Z,17.70
2022-11-22T08:17:19.500Z,16.77
2022-11-22T08:19:49.698Z,23.02
2022-11-22T08:22:22.007Z,18.40
2022-11-22T08:28:09.652Z,17.30
2022-11-22T08:30:43.208Z,22.35
2022-11-22T08:33:10.936Z,21.30
2022-11-22T08:35:39.295Z,20.95
2022-11-22T08:38:07.067Z,16.05
2022-11-22T08:45:55.008Z,17.27
2022-11-22T08:48:23.181Z,16.38
2022-11-22T08:50:53.019Z,17.10
2022-11-22T08:53:43.988Z,13.15
2022-11-22T08:56:19.212Z,16.15
2022-11-22T08:58:47.263Z,17.08
2022-11-22T09:01:21.269Z,18.40
2022-11-22T09:11:31.670Z,22.23
2022-11-22T09:14:35.798Z,17.40
2022-11-22T09:17:27.069Z,20.43
2022-11-22T09:51:05.068Z,15.77
2022-11-22T09:53:36.765Z,18.20
2022-11-22T09:56:52.738Z,22.52
2022-11-22T10:35:41.757Z,25.38
2022-11-22T10:38:20.715Z,20.80
2022-11-22T10:40:57.960Z,19.42
2022-11-22T10:44:02.074Z,20.52
2022-11-22T10:46:37.153Z,21.67
2022-11-22T10:49:10.722Z,23.33
2022-11-22T11:06:22.313Z,20.45
2022-11-22T11:18:31.731Z,17.92
2022-11-22T11:24:57.184Z,23.55
2022-11-22T11:31:05.492Z,27.02
2022-11-22T11:33:35.020Z,20.83
2022-11-22T11:39:22.948Z,22.88
2022-11-22T11:41:56.370Z,29.13
2022-11-22T11:47:33.510Z,24.80
2022-11-22T11:50:23.744Z,19.98
2022-11-22T11:52:54.470Z,18.10
2022-11-22T11:55:26.918Z,23.23
2022-11-22T11:57:55.112Z,27.63
2022-11-22T12:00:27.336Z,21.58
2022-11-22T12:03:11.894Z,23.88
2022-11-22T12:06:22.923Z,28.25
2022-11-22T12:08:51.367Z,20.35
2022-11-22T12:18:13.322Z,19.02
2022-11-22T12:20:44.689Z,21.75
2022-11-22T12:30:06.811Z,15.52
2022-11-22T12:32:55.864Z,17.65
2022-11-22T12:48:04.735Z,25.15
2022-11-22T12:51:10.763Z,27.52
2022-11-22T12:53:46.243Z,34.97
2022-11-22T12:56:19.214Z,29.27
2022-11-22T12:58:56.640Z,21.83
2022-11-22T13:01:27.207Z,27.13
2022-11-22T13:03:59.667Z,26.00
2022-11-22T13:06:29.703Z,29.48
2022-11-22T13:09:04.027Z,24.77
2022-11-22T13:11:33.364Z,22.63
2022-11-22T13:14:21.006Z,23.00
2022-11-22T13:16:52.055Z,17.73
2022-11-22T13:19:24.207Z,21.08
2022-11-22T13:22:01.339Z,24.75
2022-11-22T13:24:38.605Z,30.85
2022-11-22T13:27:12.441Z,24.17
2022-11-22T13:29:41.752Z,19.25
2022-11-22T13:32:19.900Z,18.83
2022-11-22T13:35:02.247Z,20.05
2022-11-22T13:37:30.622Z,21.13
2022-11-22T13:40:10.003Z,25.13
2022-11-22T13:42:37.618Z,33.83
2022-11-22T13:45:20.744Z,19.30
2022-11-22T13:47:49.958Z,25.05
2022-11-22T13:50:36.461Z,27.30
2022-11-22T13:53:18.654Z,25.73
2022-11-22T13:55:47.316Z,25.48
2022-11-22T13:58:32.170Z,25.17
2022-11-22T14:01:01.164Z,20.00
2022-11-22T14:03:40.927Z,24.00
2022-11-22T14:06:32.565Z,25.63
2022-11-22T14:09:32.335Z,22.85
2022-11-22T14:12:19.894Z,21.27
2022-11-22T14:15:04.902Z,23.35
2022-11-22T14:17:41.719Z,22.77
2022-11-22T14:20:21.409Z,27.92
2022-11-22T14:22:54.593Z,25.58
2022-11-22T14:25:40.358Z,21.53
2022-11-22T14:28:12.770Z,24.83
2022-11-22T14:30:42.097Z,18.60
2022-11-22T14:33:16.423Z,25.00
2022-11-22T14:35:59.858Z,25.88
2022-11-22T14:38:34.490Z,26.53
2022-11-22T14:41:20.573Z,24.45
2022-11-22T14:43:50.208Z,25.08
2022-11-22T14:46:51.359Z,26.13
2022-11-22T14:49:10.836Z,27.58
2022-11-22T14:51:39.792Z,25.35
2022-11-22T14:54:15.436Z,26.48
2022-11-22T14:56:43.936Z,19.50
2022-11-22T14:59:19.224Z,24.70
2022-11-22T15:01:57.495Z,25.48
2022-11-22T15:09:12.139Z,24.50
2022-11-22T15:09:13.961Z,19.67
2022-11-22T15:10:51.542Z,26.60
2022-11-22T15:13:34.089Z,28.42
2022-11-22T16:01:29.341Z,26.20
2022-11-22T16:03:57.830Z,19.98
2022-11-22T16:06:26.372Z,32.50
2022-11-22T16:08:55.433Z,26.45
2022-11-22T16:11:25.406Z,26.92
2022-11-22T16:13:53.304Z,28.85
2022-11-22T16:16:26.952Z,26.42
2022-11-22T16:19:14.990Z,24.10
2022-11-22T16:22:19.620Z,39.08
2022-11-22T16:24:54.139Z,29.23
2022-11-22T16:27:28.312Z,31.55
2022-11-22T16:30:03.664Z,34.55
2022-11-22T16:32:37.221Z,36.53
2022-11-22T16:35:28.942Z,24.95
2022-11-22T16:38:12.939Z,24.98
2022-11-22T16:40:42.743Z,26.20
2022-11-22T16:43:15.777Z,30.30
2022-11-22T16:45:50.362Z,24.65
2022-11-22T17:01:35.817Z,31.92
2022-11-22T17:04:04.959Z,34.60
2022-11-22T17:06:34.205Z,25.42
2022-11-22T17:12:33.640Z,34.80
2022-11-22T17:15:23.291Z,32.50
2022-11-22T17:18:15.853Z,35.92
2022-11-22T17:29:54.245Z,26.17
2022-11-22T17:32:24.576Z,33.78
2022-11-22T17:39:02.830Z,34.53
2022-11-22T17:41:53.104Z,30.05
2022-11-22T17:47:15.751Z,36.08
2022-11-22T17:49:49.088Z,35.38
2022-11-22T17:52:30.358Z,33.60
2022-11-22T17:55:11.747Z,35.00
2022-11-22T18:03:59.855Z,41.05
2022-11-22T18:06:39.525Z,36.63
2022-11-22T18:16:10.260Z,30.88
2022-11-22T18:18:56.448Z,37.90
2022-11-22T18:24:36.076Z,33.13
2022-11-22T18:30:12.577Z,30.98
2022-11-22T18:32:40.732Z,36.05
2022-11-22T18:35:12.080Z,33.60
2022-11-22T18:37:40.787Z,35.00
2022-11-22T18:40:09.414Z,33.67
2022-11-22T18:42:54.042Z,42.22
2022-11-22T18:45:23.741Z,32.05
2022-11-22T18:47:53.803Z,36.50
2022-11-22T18:50:22.964Z,37.28
2022-11-22T18:52:56.577Z,36.17
2022-11-22T18:55:31.838Z,30.33
2022-11-22T18:57:59.955Z,33.17
2022-11-22T19:00:35.116Z,38.10
2022-11-22T19:03:04.077Z,33.42
2022-11-22T19:05:49.281Z,29.13
2022-11-22T19:08:19.302Z,30.88
2022-11-22T19:10:58.183Z,30.98
2022-11-22T19:13:32.526Z,38.92
2022-11-22T19:16:04.514Z,36.90
2022-11-22T19:18:37.215Z,36.47
2022-11-22T19:21:16.567Z,34.00
2022-11-22T19:23:49.164Z,37.35
2022-11-22T19:26:20.489Z,28.52
2022-11-22T19:32:00.597Z,27.00
2022-11-22T19:34:29.716Z,30.75
2022-11-22T19:37:01.978Z,31.10
2022-11-22T19:39:29.851Z,31.80
2022-11-22T19:41:57.659Z,24.35
2022-11-22T19:44:25.490Z,22.38
2022-11-22T19:46:53.154Z,25.38
2022-11-22T19:49:20.822Z,26.02
2022-11-22T19:51:48.729Z,28.00
2022-11-22T19:54:18.643Z,24.65
2022-11-22T19:56:46.522Z,27.23
2022-11-22T19:59:17.217Z,24.90
2022-11-22T20:01:45.324Z,22.38
2022-11-22T20:04:14.491Z,21.83
2022-11-22T20:06:45.916Z,23.58
2022-11-22T20:09:29.453Z,25.17
2022-11-22T20:12:34.914Z,18.08
2022-11-22T20:15:03.118Z,27.58
2022-11-22T20:17:34.020Z,23.58
2022-11-22T20:20:02.389Z,25.27
2022-11-22T20:22:30.064Z,28.40
2022-11-22T20:24:59.892Z,27.58
2022-11-22T20:27:27.462Z,25.85
2022-11-22T20:29:55.290Z,22.00
2022-11-22T20:32:23.178Z,22.15
2022-11-22T20:37:42.729Z,21.20
2022-11-22T20:40:11.987Z,21.75
2022-11-22T20:42:40.264Z,24.70
2022-11-22T20:45:08.738Z,25.15
2022-11-22T20:47:36.328Z,22.48
2022-11-22T20:50:03.907Z,23.88
2022-11-22T20:52:31.492Z,26.52
2022-11-22T20:55:04.604Z,28.20
2022-11-22T20:57:38.743Z,24.70
2022-11-22T21:00:06.732Z,23.90
2022-11-22T21:02:35.357Z,26.05
2022-11-22T21:05:04.762Z,34.70
2022-11-22T21:07:38.059Z,32.55
2022-11-22T21:10:06.310Z,29.63
2022-11-22T21:12:42.165Z,28.88
2022-11-22T21:15:10.529Z,28.30
2022-11-22T21:18:02.099Z,29.33
2022-11-22T21:20:28.331Z,24.45
2022-11-22T21:22:56.333Z,28.08
2022-11-22T21:25:25.393Z,31.13
2022-11-22T21:27:54.391Z,29.77
2022-11-22T21:30:22.439Z,36.78
2022-11-22T21:32:49.992Z,24.98
2022-11-22T21:35:17.757Z,29.90
2022-11-22T21:37:45.352Z,31.10
2022-11-22T21:40:16.145Z,29.45
2022-11-22T21:42:44.662Z,30.92
2022-11-22T21:45:13.627Z,33.78
2022-11-22T21:47:41.109Z,31.33
2022-11-22T21:50:11.871Z,30.70
2022-11-22T21:52:42.341Z,33.85
2022-11-22T21:55:11.633Z,35.28
2022-11-22T21:57:39.828Z,33.25
2022-11-22T22:00:08.125Z,32.90
2022-11-22T22:02:37.091Z,31.83
2022-11-22T22:05:04.874Z,29.42
2022-11-22T22:10:21.215Z,29.52
2022-11-22T22:12:51.046Z,30.98
2022-11-22T22:15:19.204Z,27.90
2022-11-22T22:17:48.688Z,33.03
2022-11-22T22:20:16.342Z,29.38
2022-11-22T22:22:43.901Z,28.42
2022-11-22T22:25:13.093Z,31.83
2022-11-22T22:27:40.860Z,28.75
2022-11-22T22:30:09.336Z,31.35
2022-11-22T22:32:37.172Z,25.42
2022-11-22T22:35:11.177Z,26.48
2022-11-22T22:37:39.568Z,24.70
2022-11-22T22:40:07.783Z,25.75
2022-11-22T22:42:35.449Z,30.27
2022-11-22T22:45:05.019Z,36.38
2022-11-22T22:47:32.887Z,30.15
2022-11-22T22:50:00.484Z,22.88
2022-11-22T22:52:29.420Z,23.63
2022-11-22T22:54:57.016Z,28.40
2022-11-22T22:57:24.593Z,22.95
2022-11-22T22:59:52.129Z,23.83
2022-11-22T23:02:19.702Z,22.10
2022-11-22T23:04:47.253Z,23.27
2022-11-22T23:07:14.875Z,21.08
2022-11-22T23:09:43.802Z,28.15
2022-11-22T23:12:11.501Z,21.13
2022-11-22T23:14:40.052Z,24.35
2022-11-22T23:17:07.916Z,22.00
2022-11-22T23:19:35.475Z,23.40
2022-11-22T23:22:03.378Z,28.40
2022-11-22T23:24:31.851Z,19.58
2022-11-22T23:27:01.034Z,26.15
2022-11-22T23:29:28.625Z,24.25
2022-11-22T23:31:56.457Z,22.98
2022-11-22T23:34:24.001Z,22.90
2022-11-22T23:36:51.579Z,24.20
2022-11-22T23:39:22.706Z,23.83
2022-11-22T23:41:50.282Z,25.38
2022-11-22T23:44:19.282Z,24.65
2022-11-22T23:46:46.831Z,24.13
2022-11-22T23:49:14.398Z,25.83
2022-11-22T23:51:41.984Z,24.92
2022-11-22T23:54:11.130Z,26.55
2022-11-22T23:56:38.626Z,21.33
2022-11-22T23:59:06.181Z,24.25
